Benson, Minnesota
Current Conditions -  °F | °C
As of 9:14 PM on Monday 20 Oct 2014 (Local Time) from KBBB Reporting Station
Clear Clear  
Wind Chill: 45°   Ceiling: Unl
Heat Index: 45°   Visibility: 10mi
Dew Point: 39°   Wind: 3mph
Humidity: 81%   Direction: 100°E
Pressure: 30.04"   Gusts: NA
Location:  45.31°N, 95.6°W
Report Text: KBBB 210214Z AUTO 10003KT 10SM CLR 07/04 A3004 RMK AO2
Loading
Personal Weather Stations






























Interactive Weather Map
Tropical Storm Tracking
New forecast layout! Learn more

10-Day Weather Forecast

Advertisements
Track Severe Weather on mobile